sensor_id;sensor_type;location;lat;lon;timestamp;temperature;humidity
20728;DHT22;10525;50.154;8.198;2023-02-21T00:02:16;3.10;99.90
20728;DHT22;10525;50.154;8.198;2023-02-21T00:05:00;3.00;99.90
20728;DHT22;10525;50.154;8.198;2023-02-21T00:07:46;3.00;99.90
20728;DHT22;10525;50.154;8.198;2023-02-21T00:10:30;3.10;99.90
20728;DHT22;10525;50.154;8.198;2023-02-21T00:13:14;3.10;99.90
20728;DHT22;10525;50.154;8.198;2023-02-21T00:15:58;3.10;99.90
20728;DHT22;10525;50.154;8.198;2023-02-21T00:18:42;3.10;99.90
20728;DHT22;10525;50.154;8.198;2023-02-21T00:21:27;3.20;99.90
20728;DHT22;10525;50.154;8.198;2023-02-21T00:24:14;3.10;99.90
20728;DHT22;10525;50.154;8.198;2023-02-21T00:26:59;3.10;99.90
20728;DHT22;10525;50.154;8.198;2023-02-21T00:29:43;3.10;99.90
20728;DHT22;10525;50.154;8.198;2023-02-21T00:32:27;3.00;99.90
20728;DHT22;10525;50.154;8.198;2023-02-21T00:35:11;3.00;99.90
20728;DHT22;10525;50.154;8.198;2023-02-21T00:37:56;3.00;99.90
20728;DHT22;10525;50.154;8.198;2023-02-21T00:40:41;3.00;99.90
20728;DHT22;10525;50.154;8.198;2023-02-21T00:43:29;2.90;99.90
20728;DHT22;10525;50.154;8.198;2023-02-21T00:46:13;3.00;99.90
20728;DHT22;10525;50.154;8.198;2023-02-21T00:48:58;2.90;99.90
20728;DHT22;10525;50.154;8.198;2023-02-21T00:51:42;2.90;99.90
20728;DHT22;10525;50.154;8.198;2023-02-21T00:54:26;2.90;99.90
20728;DHT22;10525;50.154;8.198;2023-02-21T00:57:11;2.90;99.90
20728;DHT22;10525;50.154;8.198;2023-02-21T00:59:55;2.90;99.90
20728;DHT22;10525;50.154;8.198;2023-02-21T01:02:40;2.90;99.90
20728;DHT22;10525;50.154;8.198;2023-02-21T01:05:24;2.90;99.90
20728;DHT22;10525;50.154;8.198;2023-02-21T01:08:08;2.80;99.90
20728;DHT22;10525;50.154;8.198;2023-02-21T01:10:52;2.80;99.90
20728;DHT22;10525;50.154;8.198;2023-02-21T01:13:38;2.90;99.90
20728;DHT22;10525;50.154;8.198;2023-02-21T01:16:22;2.80;99.90
20728;DHT22;10525;50.154;8.198;2023-02-21T01:19:06;2.80;99.90
20728;DHT22;10525;50.154;8.198;2023-02-21T01:21:50;2.70;99.90
20728;DHT22;10525;50.154;8.198;2023-02-21T01:24:34;2.70;99.90
20728;DHT22;10525;50.154;8.198;2023-02-21T01:27:18;2.70;99.90
20728;DHT22;10525;50.154;8.198;2023-02-21T01:30:05;2.60;99.90
20728;DHT22;10525;50.154;8.198;2023-02-21T01:32:49;2.70;99.90
20728;DHT22;10525;50.154;8.198;2023-02-21T01:35:33;2.70;99.90
20728;DHT22;10525;50.154;8.198;2023-02-21T01:38:17;2.70;99.90
20728;DHT22;10525;50.154;8.198;2023-02-21T01:41:01;2.60;99.90
20728;DHT22;10525;50.154;8.198;2023-02-21T01:44:00;2.60;99.90
20728;DHT22;10525;50.154;8.198;2023-02-21T01:46:46;2.60;99.90
20728;DHT22;10525;50.154;8.198;2023-02-21T01:49:31;2.60;99.90
20728;DHT22;10525;50.154;8.198;2023-02-21T01:52:16;2.60;99.90
20728;DHT22;10525;50.154;8.198;2023-02-21T01:55:01;2.60;99.90
20728;DHT22;10525;50.154;8.198;2023-02-21T01:57:46;2.60;99.90
20728;DHT22;10525;50.154;8.198;2023-02-21T02:00:30;2.50;99.90
20728;DHT22;10525;50.154;8.198;2023-02-21T02:03:18;2.50;99.90
20728;DHT22;10525;50.154;8.198;2023-02-21T02:06:06;2.40;99.90
20728;DHT22;10525;50.154;8.198;2023-02-21T02:08:50;2.40;99.90
20728;DHT22;10525;50.154;8.198;2023-02-21T02:11:54;2.40;99.90
20728;DHT22;10525;50.154;8.198;2023-02-21T02:17:56;2.30;99.90
20728;DHT22;10525;50.154;8.198;2023-02-21T02:23:56;2.30;99.90
20728;DHT22;10525;50.154;8.198;2023-02-21T02:26:55;2.30;99.90
20728;DHT22;10525;50.154;8.198;2023-02-21T02:29:43;2.30;99.90
20728;DHT22;10525;50.154;8.198;2023-02-21T02:32:36;2.40;99.90
20728;DHT22;10525;50.154;8.198;2023-02-21T02:35:08;2.30;99.90
20728;DHT22;10525;50.154;8.198;2023-02-21T02:37:45;2.30;99.90
20728;DHT22;10525;50.154;8.198;2023-02-21T02:40:19;2.40;99.90
20728;DHT22;10525;50.154;8.198;2023-02-21T02:42:57;2.40;99.90
20728;DHT22;10525;50.154;8.198;2023-02-21T02:45:30;2.40;99.90
20728;DHT22;10525;50.154;8.198;2023-02-21T02:48:01;2.40;99.90
20728;DHT22;10525;50.154;8.198;2023-02-21T02:50:31;2.40;99.90
20728;DHT22;10525;50.154;8.198;2023-02-21T02:53:01;2.50;99.90
20728;DHT22;10525;50.154;8.198;2023-02-21T02:55:38;2.60;99.90
20728;DHT22;10525;50.154;8.198;2023-02-21T02:58:07;2.60;99.90
20728;DHT22;10525;50.154;8.198;2023-02-21T03:00:36;2.60;99.90
20728;DHT22;10525;50.154;8.198;2023-02-21T03:03:24;2.60;99.90
20728;DHT22;10525;50.154;8.198;2023-02-21T03:06:06;2.50;99.90
20728;DHT22;10525;50.154;8.198;2023-02-21T03:08:42;2.60;99.90
20728;DHT22;10525;50.154;8.198;2023-02-21T03:11:16;2.60;99.90
20728;DHT22;10525;50.154;8.198;2023-02-21T03:13:47;2.70;99.90
20728;DHT22;10525;50.154;8.198;2023-02-21T03:16:18;2.80;99.90
20728;DHT22;10525;50.154;8.198;2023-02-21T03:18:50;2.90;99.90
20728;DHT22;10525;50.154;8.198;2023-02-21T03:21:24;3.10;99.90
20728;DHT22;10525;50.154;8.198;2023-02-21T03:23:53;3.10;99.90
20728;DHT22;10525;50.154;8.198;2023-02-21T03:26:23;3.30;99.90
20728;DHT22;10525;50.154;8.198;2023-02-21T03:28:51;3.20;99.90
20728;DHT22;10525;50.154;8.198;2023-02-21T03:31:22;3.30;99.90
20728;DHT22;10525;50.154;8.198;2023-02-21T03:33:51;3.20;99.90
20728;DHT22;10525;50.154;8.198;2023-02-21T03:36:20;3.20;99.90
20728;DHT22;10525;50.154;8.198;2023-02-21T03:38:47;3.20;99.90
20728;DHT22;10525;50.154;8.198;2023-02-21T03:41:14;3.10;99.90
20728;DHT22;10525;50.154;8.198;2023-02-21T03:43:41;3.10;99.90
20728;DHT22;10525;50.154;8.198;2023-02-21T03:46:08;3.10;99.90
20728;DHT22;10525;50.154;8.198;2023-02-21T03:48:34;3.10;99.90
20728;DHT22;10525;50.154;8.198;2023-02-21T03:51:01;3.00;99.90
20728;DHT22;10525;50.154;8.198;2023-02-21T03:53:29;2.90;99.90
20728;DHT22;10525;50.154;8.198;2023-02-21T03:55:56;3.00;99.90
20728;DHT22;10525;50.154;8.198;2023-02-21T03:58:22;3.00;99.90
20728;DHT22;10525;50.154;8.198;2023-02-21T04:00:49;3.00;99.90
20728;DHT22;10525;50.154;8.198;2023-02-21T04:03:16;3.00;99.90
20728;DHT22;10525;50.154;8.198;2023-02-21T04:05:42;3.10;99.90
20728;DHT22;10525;50.154;8.198;2023-02-21T04:08:09;3.20;99.90
20728;DHT22;10525;50.154;8.198;2023-02-21T04:10:37;3.20;99.90
20728;DHT22;10525;50.154;8.198;2023-02-21T04:13:04;3.30;99.90
20728;DHT22;10525;50.154;8.198;2023-02-21T04:15:31;3.30;99.90
20728;DHT22;10525;50.154;8.198;2023-02-21T04:17:58;3.30;99.90
20728;DHT22;10525;50.154;8.198;2023-02-21T04:20:25;3.30;99.90
20728;DHT22;10525;50.154;8.198;2023-02-21T04:22:51;3.30;99.90
20728;DHT22;10525;50.154;8.198;2023-02-21T04:25:18;3.30;99.90
20728;DHT22;10525;50.154;8.198;2023-02-21T04:27:46;3.30;99.90
20728;DHT22;10525;50.154;8.198;2023-02-21T04:30:13;3.20;99.90
20728;DHT22;10525;50.154;8.198;2023-02-21T04:32:39;3.20;99.90
20728;DHT22;10525;50.154;8.198;2023-02-21T04:35:06;3.20;99.90
20728;DHT22;10525;50.154;8.198;2023-02-21T04:37:33;3.10;99.90
20728;DHT22;10525;50.154;8.198;2023-02-21T04:39:59;3.10;99.90
20728;DHT22;10525;50.154;8.198;2023-02-21T04:42:26;3.00;99.90
20728;DHT22;10525;50.154;8.198;2023-02-21T04:44:54;2.90;99.90
20728;DHT22;10525;50.154;8.198;2023-02-21T04:47:21;2.70;99.90
20728;DHT22;10525;50.154;8.198;2023-02-21T04:49:48;2.70;99.90
20728;DHT22;10525;50.154;8.198;2023-02-21T04:52:16;2.60;99.90
20728;DHT22;10525;50.154;8.198;2023-02-21T04:54:44;2.60;99.90
20728;DHT22;10525;50.154;8.198;2023-02-21T04:57:11;2.50;99.90
20728;DHT22;10525;50.154;8.198;2023-02-21T04:59:38;2.50;99.90
20728;DHT22;10525;50.154;8.198;2023-02-21T05:02:06;2.40;99.90
20728;DHT22;10525;50.154;8.198;2023-02-21T05:04:33;2.40;99.90
20728;DHT22;10525;50.154;8.198;2023-02-21T05:06:59;2.30;99.90
20728;DHT22;10525;50.154;8.198;2023-02-21T05:09:26;2.30;99.90
20728;DHT22;10525;50.154;8.198;2023-02-21T05:11:53;2.30;99.90
20728;DHT22;10525;50.154;8.198;2023-02-21T05:14:19;2.30;99.90
20728;DHT22;10525;50.154;8.198;2023-02-21T05:16:46;2.30;99.90
20728;DHT22;10525;50.154;8.198;2023-02-21T05:19:19;2.30;99.90
20728;DHT22;10525;50.154;8.198;2023-02-21T05:21:52;2.30;99.90
20728;DHT22;10525;50.154;8.198;2023-02-21T05:24:19;2.20;99.90
20728;DHT22;10525;50.154;8.198;2023-02-21T05:26:46;2.20;99.90
20728;DHT22;10525;50.154;8.198;2023-02-21T05:29:12;2.20;99.90
20728;DHT22;10525;50.154;8.198;2023-02-21T05:31:39;2.10;99.90
20728;DHT22;10525;50.154;8.198;2023-02-21T05:34:06;2.10;99.90
20728;DHT22;10525;50.154;8.198;2023-02-21T05:36:34;2.00;99.90
20728;DHT22;10525;50.154;8.198;2023-02-21T05:39:00;1.90;99.90
20728;DHT22;10525;50.154;8.198;2023-02-21T05:41:27;2.00;99.90
20728;DHT22;10525;50.154;8.198;2023-02-21T05:43:54;2.00;99.90
20728;DHT22;10525;50.154;8.198;2023-02-21T05:46:24;2.00;99.90
20728;DHT22;10525;50.154;8.198;2023-02-21T05:48:52;1.90;99.90
20728;DHT22;10525;50.154;8.198;2023-02-21T05:51:19;1.90;99.90
20728;DHT22;10525;50.154;8.198;2023-02-21T05:53:47;2.00;99.90
20728;DHT22;10525;50.154;8.198;2023-02-21T05:56:13;2.00;99.90
20728;DHT22;10525;50.154;8.198;2023-02-21T05:58:41;1.90;99.90
20728;DHT22;10525;50.154;8.198;2023-02-21T06:01:08;1.90;99.90
20728;DHT22;10525;50.154;8.198;2023-02-21T06:03:34;1.80;99.90
20728;DHT22;10525;50.154;8.198;2023-02-21T06:06:01;1.80;99.90
20728;DHT22;10525;50.154;8.198;2023-02-21T06:08:28;1.80;99.90
20728;DHT22;10525;50.154;8.198;2023-02-21T06:10:56;1.90;99.90
20728;DHT22;10525;50.154;8.198;2023-02-21T06:13:23;1.90;99.90
20728;DHT22;10525;50.154;8.198;2023-02-21T06:15:49;1.90;99.90
20728;DHT22;10525;50.154;8.198;2023-02-21T06:18:16;1.80;99.90
20728;DHT22;10525;50.154;8.198;2023-02-21T06:20:43;1.80;99.90
20728;DHT22;10525;50.154;8.198;2023-02-21T06:23:10;1.80;99.90
20728;DHT22;10525;50.154;8.198;2023-02-21T06:25:36;1.80;99.90
20728;DHT22;10525;50.154;8.198;2023-02-21T06:28:05;1.90;99.90
20728;DHT22;10525;50.154;8.198;2023-02-21T06:30:31;2.10;99.90
20728;DHT22;10525;50.154;8.198;2023-02-21T06:32:58;2.10;99.90
20728;DHT22;10525;50.154;8.198;2023-02-21T06:35:24;2.20;99.90
20728;DHT22;10525;50.154;8.198;2023-02-21T06:37:51;2.30;99.90
20728;DHT22;10525;50.154;8.198;2023-02-21T06:40:18;2.40;99.90
20728;DHT22;10525;50.154;8.198;2023-02-21T06:42:45;2.50;99.90
20728;DHT22;10525;50.154;8.198;2023-02-21T06:45:13;2.60;99.90
20728;DHT22;10525;50.154;8.198;2023-02-21T06:47:39;2.70;99.90
20728;DHT22;10525;50.154;8.198;2023-02-21T06:50:06;2.80;99.90
20728;DHT22;10525;50.154;8.198;2023-02-21T06:52:33;2.90;99.90
20728;DHT22;10525;50.154;8.198;2023-02-21T06:54:59;2.90;99.90
20728;DHT22;10525;50.154;8.198;2023-02-21T06:57:26;3.00;99.90
20728;DHT22;10525;50.154;8.198;2023-02-21T06:59:53;3.10;99.90
20728;DHT22;10525;50.154;8.198;2023-02-21T07:02:21;3.10;99.90
20728;DHT22;10525;50.154;8.198;2023-02-21T07:04:47;3.10;99.90
20728;DHT22;10525;50.154;8.198;2023-02-21T07:07:15;3.20;99.90
20728;DHT22;10525;50.154;8.198;2023-02-21T07:09:42;3.30;99.90
20728;DHT22;10525;50.154;8.198;2023-02-21T07:12:08;3.40;99.90
20728;DHT22;10525;50.154;8.198;2023-02-21T07:14:35;3.50;99.90
20728;DHT22;10525;50.154;8.198;2023-02-21T07:17:02;3.30;99.90
20728;DHT22;10525;50.154;8.198;2023-02-21T07:19:30;3.10;99.90
20728;DHT22;10525;50.154;8.198;2023-02-21T07:21:56;3.00;99.90
20728;DHT22;10525;50.154;8.198;2023-02-21T07:24:23;3.00;99.90
20728;DHT22;10525;50.154;8.198;2023-02-21T07:26:50;3.00;99.90
20728;DHT22;10525;50.154;8.198;2023-02-21T07:29:16;3.00;99.90
20728;DHT22;10525;50.154;8.198;2023-02-21T07:31:43;3.10;99.90
20728;DHT22;10525;50.154;8.198;2023-02-21T07:34:10;3.10;99.90
20728;DHT22;10525;50.154;8.198;2023-02-21T07:36:38;3.10;99.90
20728;DHT22;10525;50.154;8.198;2023-02-21T07:39:05;3.20;99.90
20728;DHT22;10525;50.154;8.198;2023-02-21T07:41:32;3.20;99.90
20728;DHT22;10525;50.154;8.198;2023-02-21T07:43:59;3.30;99.90
20728;DHT22;10525;50.154;8.198;2023-02-21T07:46:26;3.40;99.90
20728;DHT22;10525;50.154;8.198;2023-02-21T07:48:53;3.50;99.90
20728;DHT22;10525;50.154;8.198;2023-02-21T07:51:20;3.60;99.90
20728;DHT22;10525;50.154;8.198;2023-02-21T07:53:48;3.70;99.90
20728;DHT22;10525;50.154;8.198;2023-02-21T07:56:15;3.80;99.90
20728;DHT22;10525;50.154;8.198;2023-02-21T07:58:42;3.90;99.90
20728;DHT22;10525;50.154;8.198;2023-02-21T08:01:08;4.00;99.90
20728;DHT22;10525;50.154;8.198;2023-02-21T08:03:35;4.00;99.90
20728;DHT22;10525;50.154;8.198;2023-02-21T08:06:03;4.10;99.90
20728;DHT22;10525;50.154;8.198;2023-02-21T08:08:30;4.20;99.90
20728;DHT22;10525;50.154;8.198;2023-02-21T08:10:58;4.30;99.90
20728;DHT22;10525;50.154;8.198;2023-02-21T08:13:24;4.50;99.90
20728;DHT22;10525;50.154;8.198;2023-02-21T08:15:51;4.50;99.90
20728;DHT22;10525;50.154;8.198;2023-02-21T08:18:19;4.60;99.90
20728;DHT22;10525;50.154;8.198;2023-02-21T08:20:48;4.70;99.90
20728;DHT22;10525;50.154;8.198;2023-02-21T08:23:15;4.80;99.90
20728;DHT22;10525;50.154;8.198;2023-02-21T08:25:42;4.90;99.90
20728;DHT22;10525;50.154;8.198;2023-02-21T08:28:11;5.10;99.90
20728;DHT22;10525;50.154;8.198;2023-02-21T08:30:37;5.20;99.90
20728;DHT22;10525;50.154;8.198;2023-02-21T08:33:04;5.40;99.90
20728;DHT22;10525;50.154;8.198;2023-02-21T08:35:31;5.60;99.90
20728;DHT22;10525;50.154;8.198;2023-02-21T08:37:57;5.70;99.90
20728;DHT22;10525;50.154;8.198;2023-02-21T08:40:28;5.90;99.90
20728;DHT22;10525;50.154;8.198;2023-02-21T08:42:57;6.00;99.90
20728;DHT22;10525;50.154;8.198;2023-02-21T08:45:26;6.20;99.90
20728;DHT22;10525;50.154;8.198;2023-02-21T08:47:53;6.30;99.90
20728;DHT22;10525;50.154;8.198;2023-02-21T08:50:26;6.50;99.90
20728;DHT22;10525;50.154;8.198;2023-02-21T08:52:52;6.60;99.90
20728;DHT22;10525;50.154;8.198;2023-02-21T08:55:20;6.90;99.90
20728;DHT22;10525;50.154;8.198;2023-02-21T08:57:47;7.00;99.90
20728;DHT22;10525;50.154;8.198;2023-02-21T09:00:15;7.10;99.90
20728;DHT22;10525;50.154;8.198;2023-02-21T09:02:43;7.30;99.90
20728;DHT22;10525;50.154;8.198;2023-02-21T09:05:11;7.30;99.90
20728;DHT22;10525;50.154;8.198;2023-02-21T09:07:38;7.50;99.90
20728;DHT22;10525;50.154;8.198;2023-02-21T09:10:06;7.60;99.90
20728;DHT22;10525;50.154;8.198;2023-02-21T09:12:34;7.80;99.90
20728;DHT22;10525;50.154;8.198;2023-02-21T09:15:02;8.00;99.90
20728;DHT22;10525;50.154;8.198;2023-02-21T09:17:28;8.10;99.90
20728;DHT22;10525;50.154;8.198;2023-02-21T09:19:59;8.20;99.90
20728;DHT22;10525;50.154;8.198;2023-02-21T09:22:26;8.30;99.90
20728;DHT22;10525;50.154;8.198;2023-02-21T09:24:53;8.50;99.90
20728;DHT22;10525;50.154;8.198;2023-02-21T09:27:20;8.60;99.90
20728;DHT22;10525;50.154;8.198;2023-02-21T09:30:01;8.80;99.90
20728;DHT22;10525;50.154;8.198;2023-02-21T09:32:28;9.00;99.90
20728;DHT22;10525;50.154;8.198;2023-02-21T09:34:54;9.20;99.90
20728;DHT22;10525;50.154;8.198;2023-02-21T09:37:22;9.40;99.90
20728;DHT22;10525;50.154;8.198;2023-02-21T09:39:49;9.50;99.90
20728;DHT22;10525;50.154;8.198;2023-02-21T09:42:16;9.60;99.90
20728;DHT22;10525;50.154;8.198;2023-02-21T09:44:44;9.80;99.90
20728;DHT22;10525;50.154;8.198;2023-02-21T09:47:15;10.00;99.90
20728;DHT22;10525;50.154;8.198;2023-02-21T09:49:44;10.10;99.90
20728;DHT22;10525;50.154;8.198;2023-02-21T09:52:18;10.00;99.90
20728;DHT22;10525;50.154;8.198;2023-02-21T09:54:53;10.10;99.90
20728;DHT22;10525;50.154;8.198;2023-02-21T09:57:21;10.40;99.90
20728;DHT22;10525;50.154;8.198;2023-02-21T09:59:48;10.50;99.90
20728;DHT22;10525;50.154;8.198;2023-02-21T10:02:37;10.60;99.90
20728;DHT22;10525;50.154;8.198;2023-02-21T10:05:14;10.70;99.90
20728;DHT22;10525;50.154;8.198;2023-02-21T10:07:45;10.80;99.90
20728;DHT22;10525;50.154;8.198;2023-02-21T10:10:17;10.80;99.90
20728;DHT22;10525;50.154;8.198;2023-02-21T10:12:49;10.90;99.90
20728;DHT22;10525;50.154;8.198;2023-02-21T10:15:31;10.90;99.90
20728;DHT22;10525;50.154;8.198;2023-02-21T10:18:04;11.10;99.90
20728;DHT22;10525;50.154;8.198;2023-02-21T10:20:37;11.30;99.90
20728;DHT22;10525;50.154;8.198;2023-02-21T10:23:13;11.30;99.90
20728;DHT22;10525;50.154;8.198;2023-02-21T10:25:43;11.40;99.90
20728;DHT22;10525;50.154;8.198;2023-02-21T10:28:17;11.50;99.90
20728;DHT22;10525;50.154;8.198;2023-02-21T10:30:44;11.60;99.90
20728;DHT22;10525;50.154;8.198;2023-02-21T10:33:12;11.80;99.90
20728;DHT22;10525;50.154;8.198;2023-02-21T10:35:39;11.90;99.90
20728;DHT22;10525;50.154;8.198;2023-02-21T10:38:08;11.90;99.90
20728;DHT22;10525;50.154;8.198;2023-02-21T10:40:37;11.90;99.90
20728;DHT22;10525;50.154;8.198;2023-02-21T10:43:10;12.00;99.90
20728;DHT22;10525;50.154;8.198;2023-02-21T10:45:40;12.10;99.90
20728;DHT22;10525;50.154;8.198;2023-02-21T10:48:11;12.10;99.90
20728;DHT22;10525;50.154;8.198;2023-02-21T10:50:42;12.30;99.90
20728;DHT22;10525;50.154;8.198;2023-02-21T10:53:22;12.30;99.90
20728;DHT22;10525;50.154;8.198;2023-02-21T10:58:59;12.30;99.90
20728;DHT22;10525;50.154;8.198;2023-02-21T11:01:34;12.40;99.90
20728;DHT22;10525;50.154;8.198;2023-02-21T11:04:04;12.40;99.90
20728;DHT22;10525;50.154;8.198;2023-02-21T11:06:33;12.50;99.90
20728;DHT22;10525;50.154;8.198;2023-02-21T11:09:02;12.50;99.90
20728;DHT22;10525;50.154;8.198;2023-02-21T11:11:59;12.50;99.90
20728;DHT22;10525;50.154;8.198;2023-02-21T11:14:28;12.40;99.90
20728;DHT22;10525;50.154;8.198;2023-02-21T11:17:15;12.50;99.90
20728;DHT22;10525;50.154;8.198;2023-02-21T11:19:48;12.60;99.90
20728;DHT22;10525;50.154;8.198;2023-02-21T11:22:16;12.60;99.90
20728;DHT22;10525;50.154;8.198;2023-02-21T11:24:53;12.70;99.90
20728;DHT22;10525;50.154;8.198;2023-02-21T11:27:21;12.90;99.90
20728;DHT22;10525;50.154;8.198;2023-02-21T11:29:51;12.90;99.90
20728;DHT22;10525;50.154;8.198;2023-02-21T11:32:25;12.80;99.90
20728;DHT22;10525;50.154;8.198;2023-02-21T11:35:05;12.80;99.90
20728;DHT22;10525;50.154;8.198;2023-02-21T11:37:32;12.90;99.90
20728;DHT22;10525;50.154;8.198;2023-02-21T11:39:59;12.90;99.90
20728;DHT22;10525;50.154;8.198;2023-02-21T11:42:32;12.90;99.90
20728;DHT22;10525;50.154;8.198;2023-02-21T11:45:19;13.00;99.90
20728;DHT22;10525;50.154;8.198;2023-02-21T11:47:54;13.00;99.90
20728;DHT22;10525;50.154;8.198;2023-02-21T11:50:24;13.00;99.90
20728;DHT22;10525;50.154;8.198;2023-02-21T11:52:58;13.00;99.90
20728;DHT22;10525;50.154;8.198;2023-02-21T11:55:26;13.10;99.90
20728;DHT22;10525;50.154;8.198;2023-02-21T11:58:05;13.00;99.90
20728;DHT22;10525;50.154;8.198;2023-02-21T12:00:44;12.90;99.90
20728;DHT22;10525;50.154;8.198;2023-02-21T12:03:45;13.00;99.90
20728;DHT22;10525;50.154;8.198;2023-02-21T12:06:20;13.00;99.90
20728;DHT22;10525;50.154;8.198;2023-02-21T12:08:56;13.00;99.90
20728;DHT22;10525;50.154;8.198;2023-02-21T12:11:44;13.10;99.90
20728;DHT22;10525;50.154;8.198;2023-02-21T12:14:23;13.10;99.90
20728;DHT22;10525;50.154;8.198;2023-02-21T12:17:04;13.10;99.90
20728;DHT22;10525;50.154;8.198;2023-02-21T12:19:44;13.10;99.90
20728;DHT22;10525;50.154;8.198;2023-02-21T12:22:21;13.10;99.90
20728;DHT22;10525;50.154;8.198;2023-02-21T12:25:02;13.10;99.90
20728;DHT22;10525;50.154;8.198;2023-02-21T12:27:37;13.20;99.90
20728;DHT22;10525;50.154;8.198;2023-02-21T12:30:20;13.30;99.90
20728;DHT22;10525;50.154;8.198;2023-02-21T12:32:59;13.30;99.90
20728;DHT22;10525;50.154;8.198;2023-02-21T12:35:53;13.20;99.90
20728;DHT22;10525;50.154;8.198;2023-02-21T12:38:30;13.10;99.90
20728;DHT22;10525;50.154;8.198;2023-02-21T12:41:05;12.90;99.90
20728;DHT22;10525;50.154;8.198;2023-02-21T12:43:50;12.90;99.90
20728;DHT22;10525;50.154;8.198;2023-02-21T12:46:25;12.90;99.90
20728;DHT22;10525;50.154;8.198;2023-02-21T12:49:00;13.00;99.90
20728;DHT22;10525;50.154;8.198;2023-02-21T12:51:32;13.00;99.90
20728;DHT22;10525;50.154;8.198;2023-02-21T12:54:03;13.10;99.90
20728;DHT22;10525;50.154;8.198;2023-02-21T12:56:35;13.10;99.90
20728;DHT22;10525;50.154;8.198;2023-02-21T12:59:10;13.20;99.90
20728;DHT22;10525;50.154;8.198;2023-02-21T13:01:43;13.10;99.90
20728;DHT22;10525;50.154;8.198;2023-02-21T13:04:20;13.10;99.90
20728;DHT22;10525;50.154;8.198;2023-02-21T13:06:51;13.10;99.90
20728;DHT22;10525;50.154;8.198;2023-02-21T13:09:24;13.00;99.90
20728;DHT22;10525;50.154;8.198;2023-02-21T13:11:57;13.00;99.90
20728;DHT22;10525;50.154;8.198;2023-02-21T13:14:30;13.00;99.90
20728;DHT22;10525;50.154;8.198;2023-02-21T13:16:57;13.00;99.90
20728;DHT22;10525;50.154;8.198;2023-02-21T13:19:32;13.00;99.90
20728;DHT22;10525;50.154;8.198;2023-02-21T13:24:58;13.00;99.90
20728;DHT22;10525;50.154;8.198;2023-02-21T13:27:48;12.90;99.90
20728;DHT22;10525;50.154;8.198;2023-02-21T13:30:21;13.00;99.90
20728;DHT22;10525;50.154;8.198;2023-02-21T13:32:51;13.10;99.90
20728;DHT22;10525;50.154;8.198;2023-02-21T13:35:25;13.10;99.90
20728;DHT22;10525;50.154;8.198;2023-02-21T13:37:52;13.00;99.90
20728;DHT22;10525;50.154;8.198;2023-02-21T13:40:23;13.00;99.90
20728;DHT22;10525;50.154;8.198;2023-02-21T13:43:03;13.00;99.90
20728;DHT22;10525;50.154;8.198;2023-02-21T13:45:31;13.00;99.90
20728;DHT22;10525;50.154;8.198;2023-02-21T13:48:22;13.00;99.90
20728;DHT22;10525;50.154;8.198;2023-02-21T13:50:52;12.90;99.90
20728;DHT22;10525;50.154;8.198;2023-02-21T13:53:21;12.90;99.90
20728;DHT22;10525;50.154;8.198;2023-02-21T13:56:11;12.90;99.90
20728;DHT22;10525;50.154;8.198;2023-02-21T13:58:39;12.90;99.90
20728;DHT22;10525;50.154;8.198;2023-02-21T14:01:39;12.80;99.90
20728;DHT22;10525;50.154;8.198;2023-02-21T14:07:47;12.70;99.90
20728;DHT22;10525;50.154;8.198;2023-02-21T14:10:22;12.70;99.90
20728;DHT22;10525;50.154;8.198;2023-02-21T14:12:54;12.60;99.90
20728;DHT22;10525;50.154;8.198;2023-02-21T14:15:22;12.70;99.90
20728;DHT22;10525;50.154;8.198;2023-02-21T14:17:50;12.70;99.90
20728;DHT22;10525;50.154;8.198;2023-02-21T14:20:20;12.70;99.90
20728;DHT22;10525;50.154;8.198;2023-02-21T14:22:50;12.70;99.90
20728;DHT22;10525;50.154;8.198;2023-02-21T14:25:21;12.60;99.90
20728;DHT22;10525;50.154;8.198;2023-02-21T14:27:49;12.60;99.90
20728;DHT22;10525;50.154;8.198;2023-02-21T14:30:31;12.60;99.90
20728;DHT22;10525;50.154;8.198;2023-02-21T14:33:17;12.60;99.90
20728;DHT22;10525;50.154;8.198;2023-02-21T14:35:54;12.70;99.90
20728;DHT22;10525;50.154;8.198;2023-02-21T14:38:26;12.70;99.90
20728;DHT22;10525;50.154;8.198;2023-02-21T14:41:01;12.60;99.90
20728;DHT22;10525;50.154;8.198;2023-02-21T14:43:56;12.60;99.90
20728;DHT22;10525;50.154;8.198;2023-02-21T14:46:38;12.50;99.90
20728;DHT22;10525;50.154;8.198;2023-02-21T14:52:14;12.60;99.90
20728;DHT22;10525;50.154;8.198;2023-02-21T14:55:21;12.60;99.90
20728;DHT22;10525;50.154;8.198;2023-02-21T15:01:00;12.60;99.90
20728;DHT22;10525;50.154;8.198;2023-02-21T15:03:32;12.60;99.90
20728;DHT22;10525;50.154;8.198;2023-02-21T15:06:04;12.60;99.90
20728;DHT22;10525;50.154;8.198;2023-02-21T15:08:41;12.50;99.90
20728;DHT22;10525;50.154;8.198;2023-02-21T15:11:23;12.40;99.90
20728;DHT22;10525;50.154;8.198;2023-02-21T15:14:12;12.40;99.90
20728;DHT22;10525;50.154;8.198;2023-02-21T15:16:42;12.30;99.90
20728;DHT22;10525;50.154;8.198;2023-02-21T15:19:20;12.30;99.90
20728;DHT22;10525;50.154;8.198;2023-02-21T15:21:47;12.30;99.90
20728;DHT22;10525;50.154;8.198;2023-02-21T15:24:15;12.20;99.90
20728;DHT22;10525;50.154;8.198;2023-02-21T15:26:43;12.20;99.90
20728;DHT22;10525;50.154;8.198;2023-02-21T15:29:11;12.30;99.90
20728;DHT22;10525;50.154;8.198;2023-02-21T15:31:42;12.10;99.90
20728;DHT22;10525;50.154;8.198;2023-02-21T15:34:15;12.10;99.90
20728;DHT22;10525;50.154;8.198;2023-02-21T15:36:44;12.10;99.90
20728;DHT22;10525;50.154;8.198;2023-02-21T15:39:17;12.00;99.90
20728;DHT22;10525;50.154;8.198;2023-02-21T15:41:49;11.90;99.90
20728;DHT22;10525;50.154;8.198;2023-02-21T15:44:19;11.90;99.90
20728;DHT22;10525;50.154;8.198;2023-02-21T15:46:50;11.90;99.90
20728;DHT22;10525;50.154;8.198;2023-02-21T15:49:23;11.80;99.90
20728;DHT22;10525;50.154;8.198;2023-02-21T15:51:51;11.80;99.90
20728;DHT22;10525;50.154;8.198;2023-02-21T15:54:24;11.80;99.90
20728;DHT22;10525;50.154;8.198;2023-02-21T15:57:04;11.70;99.90
20728;DHT22;10525;50.154;8.198;2023-02-21T15:59:32;11.70;99.90
20728;DHT22;10525;50.154;8.198;2023-02-21T16:02:16;11.70;99.90
20728;DHT22;10525;50.154;8.198;2023-02-21T16:04:44;11.70;99.90
20728;DHT22;10525;50.154;8.198;2023-02-21T16:07:17;11.60;99.90
20728;DHT22;10525;50.154;8.198;2023-02-21T16:09:47;11.50;99.90
20728;DHT22;10525;50.154;8.198;2023-02-21T16:12:25;11.50;99.90
20728;DHT22;10525;50.154;8.198;2023-02-21T16:14:55;11.50;99.90
20728;DHT22;10525;50.154;8.198;2023-02-21T16:17:28;11.40;99.90
20728;DHT22;10525;50.154;8.198;2023-02-21T16:19:57;11.40;99.90
20728;DHT22;10525;50.154;8.198;2023-02-21T16:22:32;11.30;99.90
20728;DHT22;10525;50.154;8.198;2023-02-21T16:25:19;11.20;99.90
20728;DHT22;10525;50.154;8.198;2023-02-21T16:27:49;11.00;99.90
20728;DHT22;10525;50.154;8.198;2023-02-21T16:30:18;11.00;99.90
20728;DHT22;10525;50.154;8.198;2023-02-21T16:32:46;10.80;99.90
20728;DHT22;10525;50.154;8.198;2023-02-21T16:35:16;10.60;99.90
20728;DHT22;10525;50.154;8.198;2023-02-21T16:37:45;10.50;99.90
20728;DHT22;10525;50.154;8.198;2023-02-21T16:40:14;10.30;99.90